sensor_id;sensor_type;location;lat;lon;timestamp;P1;durP1;ratioP1;P2;durP2;ratioP2
5245;SDS011;54412;51.206;6.888;2022-10-04T00:01:49;5.40;;;4.17;;
5245;SDS011;54412;51.206;6.888;2022-10-04T00:04:26;12.33;;;4.67;;
5245;SDS011;54412;51.206;6.888;2022-10-04T00:09:32;13.07;;;4.70;;
5245;SDS011;54412;51.206;6.888;2022-10-04T00:15:05;10.10;;;5.30;;
5245;SDS011;54412;51.206;6.888;2022-10-04T00:25:58;12.70;;;3.97;;
5245;SDS011;54412;51.206;6.888;2022-10-04T00:46:45;12.40;;;4.97;;
5245;SDS011;54412;51.206;6.888;2022-10-04T00:49:15;9.13;;;4.40;;
5245;SDS011;54412;51.206;6.888;2022-10-04T00:51:54;6.20;;;4.47;;
5245;SDS011;54412;51.206;6.888;2022-10-04T00:54:37;11.70;;;5.97;;
5245;SDS011;54412;51.206;6.888;2022-10-04T00:57:11;7.03;;;3.83;;
5245;SDS011;54412;51.206;6.888;2022-10-04T00:59:48;7.77;;;4.40;;
5245;SDS011;54412;51.206;6.888;2022-10-04T01:02:34;11.37;;;4.97;;
5245;SDS011;54412;51.206;6.888;2022-10-04T01:05:24;9.30;;;4.43;;
5245;SDS011;54412;51.206;6.888;2022-10-04T01:08:05;8.87;;;4.77;;
5245;SDS011;54412;51.206;6.888;2022-10-04T01:13:29;7.33;;;4.00;;
5245;SDS011;54412;51.206;6.888;2022-10-04T01:16:00;9.00;;;4.93;;
5245;SDS011;54412;51.206;6.888;2022-10-04T01:18:33;14.87;;;5.60;;
5245;SDS011;54412;51.206;6.888;2022-10-04T01:29:15;8.83;;;4.20;;
5245;SDS011;54412;51.206;6.888;2022-10-04T01:31:54;5.60;;;4.07;;
5245;SDS011;54412;51.206;6.888;2022-10-04T01:34:23;8.80;;;4.40;;
5245;SDS011;54412;51.206;6.888;2022-10-04T01:36:54;6.13;;;4.73;;
5245;SDS011;54412;51.206;6.888;2022-10-04T01:39:25;8.80;;;4.37;;
5245;SDS011;54412;51.206;6.888;2022-10-04T01:47:20;7.83;;;4.43;;
5245;SDS011;54412;51.206;6.888;2022-10-04T01:49:57;11.40;;;4.53;;
5245;SDS011;54412;51.206;6.888;2022-10-04T01:52:34;8.27;;;4.23;;
5245;SDS011;54412;51.206;6.888;2022-10-04T01:55:12;8.87;;;5.27;;
5245;SDS011;54412;51.206;6.888;2022-10-04T01:57:48;11.87;;;5.00;;
5245;SDS011;54412;51.206;6.888;2022-10-04T02:00:22;9.53;;;4.30;;
5245;SDS011;54412;51.206;6.888;2022-10-04T02:02:53;8.47;;;4.60;;
5245;SDS011;54412;51.206;6.888;2022-10-04T02:05:32;9.60;;;4.10;;
5245;SDS011;54412;51.206;6.888;2022-10-04T02:08:15;9.73;;;4.50;;
5245;SDS011;54412;51.206;6.888;2022-10-04T02:10:51;8.67;;;5.03;;
5245;SDS011;54412;51.206;6.888;2022-10-04T02:13:18;10.10;;;5.07;;
5245;SDS011;54412;51.206;6.888;2022-10-04T02:15:48;7.83;;;4.97;;
5245;SDS011;54412;51.206;6.888;2022-10-04T02:18:16;6.00;;;4.40;;
5245;SDS011;54412;51.206;6.888;2022-10-04T02:20:46;8.80;;;4.73;;
5245;SDS011;54412;51.206;6.888;2022-10-04T02:23:15;11.10;;;4.40;;
5245;SDS011;54412;51.206;6.888;2022-10-04T02:25:45;12.30;;;4.70;;
5245;SDS011;54412;51.206;6.888;2022-10-04T02:28:11;11.13;;;4.80;;
5245;SDS011;54412;51.206;6.888;2022-10-04T02:30:46;7.30;;;4.80;;
5245;SDS011;54412;51.206;6.888;2022-10-04T02:33:41;9.50;;;5.20;;
5245;SDS011;54412;51.206;6.888;2022-10-04T02:36:10;5.27;;;4.10;;
5245;SDS011;54412;51.206;6.888;2022-10-04T02:38:41;11.33;;;4.90;;
5245;SDS011;54412;51.206;6.888;2022-10-04T02:41:28;8.67;;;5.23;;
5245;SDS011;54412;51.206;6.888;2022-10-04T02:44:26;6.37;;;5.10;;
5245;SDS011;54412;51.206;6.888;2022-10-04T02:47:06;5.73;;;5.13;;
5245;SDS011;54412;51.206;6.888;2022-10-04T02:49:59;13.00;;;5.40;;
5245;SDS011;54412;51.206;6.888;2022-10-04T02:52:44;8.97;;;4.80;;
5245;SDS011;54412;51.206;6.888;2022-10-04T02:55:19;7.13;;;5.80;;
5245;SDS011;54412;51.206;6.888;2022-10-04T02:57:52;12.50;;;4.90;;
5245;SDS011;54412;51.206;6.888;2022-10-04T03:00:29;9.33;;;4.90;;
5245;SDS011;54412;51.206;6.888;2022-10-04T03:03:10;7.87;;;4.63;;
5245;SDS011;54412;51.206;6.888;2022-10-04T03:05:40;10.90;;;5.30;;
5245;SDS011;54412;51.206;6.888;2022-10-04T03:08:20;13.60;;;5.60;;
5245;SDS011;54412;51.206;6.888;2022-10-04T03:10:46;8.80;;;5.00;;
5245;SDS011;54412;51.206;6.888;2022-10-04T03:13:12;7.53;;;4.77;;
5245;SDS011;54412;51.206;6.888;2022-10-04T03:15:41;10.67;;;5.50;;
5245;SDS011;54412;51.206;6.888;2022-10-04T03:18:08;13.63;;;5.20;;
5245;SDS011;54412;51.206;6.888;2022-10-04T03:20:35;7.43;;;5.57;;
5245;SDS011;54412;51.206;6.888;2022-10-04T03:23:04;7.77;;;5.23;;
5245;SDS011;54412;51.206;6.888;2022-10-04T03:25:47;10.83;;;6.10;;
5245;SDS011;54412;51.206;6.888;2022-10-04T03:28:18;8.10;;;4.67;;
5245;SDS011;54412;51.206;6.888;2022-10-04T03:30:45;10.67;;;4.90;;
5245;SDS011;54412;51.206;6.888;2022-10-04T03:33:16;9.53;;;4.87;;
5245;SDS011;54412;51.206;6.888;2022-10-04T03:35:48;11.93;;;5.57;;
5245;SDS011;54412;51.206;6.888;2022-10-04T03:38:18;10.23;;;5.57;;
5245;SDS011;54412;51.206;6.888;2022-10-04T03:40:50;7.10;;;5.00;;
5245;SDS011;54412;51.206;6.888;2022-10-04T03:43:25;6.57;;;5.00;;
5245;SDS011;54412;51.206;6.888;2022-10-04T03:45:55;7.53;;;5.47;;
5245;SDS011;54412;51.206;6.888;2022-10-04T03:48:31;7.57;;;4.70;;
5245;SDS011;54412;51.206;6.888;2022-10-04T03:51:06;7.80;;;4.93;;
5245;SDS011;54412;51.206;6.888;2022-10-04T03:53:41;12.50;;;5.80;;
5245;SDS011;54412;51.206;6.888;2022-10-04T03:56:33;18.53;;;5.30;;
5245;SDS011;54412;51.206;6.888;2022-10-04T03:59:01;15.00;;;5.50;;
5245;SDS011;54412;51.206;6.888;2022-10-04T04:01:35;11.00;;;5.40;;
5245;SDS011;54412;51.206;6.888;2022-10-04T04:04:12;7.43;;;4.70;;
5245;SDS011;54412;51.206;6.888;2022-10-04T04:12:57;6.70;;;4.77;;
5245;SDS011;54412;51.206;6.888;2022-10-04T04:15:28;6.87;;;4.47;;
5245;SDS011;54412;51.206;6.888;2022-10-04T04:18:02;10.73;;;4.90;;
5245;SDS011;54412;51.206;6.888;2022-10-04T04:20:32;6.63;;;4.90;;
5245;SDS011;54412;51.206;6.888;2022-10-04T04:25:40;6.47;;;4.83;;
5245;SDS011;54412;51.206;6.888;2022-10-04T04:31:32;8.23;;;4.53;;
5245;SDS011;54412;51.206;6.888;2022-10-04T04:34:21;6.43;;;4.13;;
5245;SDS011;54412;51.206;6.888;2022-10-04T04:37:00;6.27;;;4.93;;
5245;SDS011;54412;51.206;6.888;2022-10-04T04:39:29;11.57;;;5.23;;
5245;SDS011;54412;51.206;6.888;2022-10-04T04:44:52;10.53;;;5.13;;
5245;SDS011;54412;51.206;6.888;2022-10-04T04:47:28;5.70;;;4.50;;
5245;SDS011;54412;51.206;6.888;2022-10-04T04:50:03;8.80;;;5.10;;
5245;SDS011;54412;51.206;6.888;2022-10-04T04:52:39;10.47;;;4.90;;
5245;SDS011;54412;51.206;6.888;2022-10-04T04:55:15;14.93;;;6.13;;
5245;SDS011;54412;51.206;6.888;2022-10-04T04:58:05;9.50;;;5.83;;
5245;SDS011;54412;51.206;6.888;2022-10-04T05:00:36;6.50;;;4.70;;
5245;SDS011;54412;51.206;6.888;2022-10-04T05:03:14;10.50;;;4.60;;
5245;SDS011;54412;51.206;6.888;2022-10-04T05:05:44;8.87;;;4.93;;
5245;SDS011;54412;51.206;6.888;2022-10-04T05:11:11;7.60;;;5.33;;
5245;SDS011;54412;51.206;6.888;2022-10-04T05:13:46;8.50;;;5.00;;
5245;SDS011;54412;51.206;6.888;2022-10-04T05:19:13;9.80;;;5.27;;
5245;SDS011;54412;51.206;6.888;2022-10-04T05:21:49;7.77;;;5.60;;
5245;SDS011;54412;51.206;6.888;2022-10-04T05:24:22;15.80;;;5.20;;
5245;SDS011;54412;51.206;6.888;2022-10-04T05:30:05;8.33;;;4.80;;
5245;SDS011;54412;51.206;6.888;2022-10-04T05:33:04;7.47;;;5.10;;
5245;SDS011;54412;51.206;6.888;2022-10-04T05:35:53;9.20;;;4.70;;
5245;SDS011;54412;51.206;6.888;2022-10-04T05:38:52;7.23;;;5.10;;
5245;SDS011;54412;51.206;6.888;2022-10-04T05:44:22;7.30;;;4.80;;
5245;SDS011;54412;51.206;6.888;2022-10-04T05:47:04;6.53;;;4.97;;
5245;SDS011;54412;51.206;6.888;2022-10-04T05:49:33;10.60;;;4.97;;
5245;SDS011;54412;51.206;6.888;2022-10-04T05:52:14;6.90;;;4.40;;
5245;SDS011;54412;51.206;6.888;2022-10-04T06:03:42;9.07;;;4.80;;
5245;SDS011;54412;51.206;6.888;2022-10-04T06:06:33;15.97;;;5.60;;
5245;SDS011;54412;51.206;6.888;2022-10-04T06:21:17;9.87;;;5.30;;
5245;SDS011;54412;51.206;6.888;2022-10-04T06:26:42;6.60;;;5.67;;
5245;SDS011;54412;51.206;6.888;2022-10-04T06:29:19;9.07;;;4.70;;
5245;SDS011;54412;51.206;6.888;2022-10-04T06:37:20;9.80;;;4.80;;
5245;SDS011;54412;51.206;6.888;2022-10-04T06:40:28;7.20;;;4.00;;
5245;SDS011;54412;51.206;6.888;2022-10-04T07:01:01;7.80;;;5.23;;
5245;SDS011;54412;51.206;6.888;2022-10-04T07:03:46;6.67;;;4.90;;
5245;SDS011;54412;51.206;6.888;2022-10-04T07:06:23;8.27;;;5.17;;
5245;SDS011;54412;51.206;6.888;2022-10-04T07:08:57;9.93;;;6.03;;
5245;SDS011;54412;51.206;6.888;2022-10-04T07:14:37;13.77;;;5.83;;
5245;SDS011;54412;51.206;6.888;2022-10-04T07:17:14;14.10;;;5.40;;
5245;SDS011;54412;51.206;6.888;2022-10-04T07:19:51;10.77;;;5.80;;
5245;SDS011;54412;51.206;6.888;2022-10-04T07:30:58;8.63;;;5.10;;
5245;SDS011;54412;51.206;6.888;2022-10-04T07:33:40;9.63;;;5.60;;
5245;SDS011;54412;51.206;6.888;2022-10-04T07:36:18;11.43;;;5.63;;
5245;SDS011;54412;51.206;6.888;2022-10-04T07:39:13;13.13;;;5.80;;
5245;SDS011;54412;51.206;6.888;2022-10-04T07:41:51;9.50;;;5.43;;
5245;SDS011;54412;51.206;6.888;2022-10-04T07:44:35;6.47;;;4.73;;
5245;SDS011;54412;51.206;6.888;2022-10-04T07:47:19;10.30;;;5.13;;
5245;SDS011;54412;51.206;6.888;2022-10-04T07:49:49;9.17;;;5.57;;
5245;SDS011;54412;51.206;6.888;2022-10-04T07:58:07;7.77;;;5.63;;
5245;SDS011;54412;51.206;6.888;2022-10-04T08:01:17;16.40;;;6.60;;
5245;SDS011;54412;51.206;6.888;2022-10-04T08:06:57;16.93;;;6.93;;
5245;SDS011;54412;51.206;6.888;2022-10-04T08:18:07;9.53;;;7.53;;
5245;SDS011;54412;51.206;6.888;2022-10-04T08:21:06;9.57;;;6.07;;
5245;SDS011;54412;51.206;6.888;2022-10-04T08:26:48;11.03;;;6.23;;
5245;SDS011;54412;51.206;6.888;2022-10-04T08:32:49;7.37;;;6.57;;
5245;SDS011;54412;51.206;6.888;2022-10-04T08:35:47;9.43;;;6.20;;
5245;SDS011;54412;51.206;6.888;2022-10-04T08:44:02;9.10;;;5.13;;
5245;SDS011;54412;51.206;6.888;2022-10-04T08:50:31;7.00;;;5.07;;
5245;SDS011;54412;51.206;6.888;2022-10-04T09:01:57;5.00;;;4.50;;
5245;SDS011;54412;51.206;6.888;2022-10-04T09:22:46;16.33;;;4.97;;
5245;SDS011;54412;51.206;6.888;2022-10-04T09:44:26;10.07;;;4.90;;
5245;SDS011;54412;51.206;6.888;2022-10-04T09:47:25;9.00;;;4.63;;
5245;SDS011;54412;51.206;6.888;2022-10-04T09:59:26;14.30;;;4.10;;
5245;SDS011;54412;51.206;6.888;2022-10-04T10:05:19;13.13;;;5.17;;
5245;SDS011;54412;51.206;6.888;2022-10-04T10:07:59;8.60;;;4.10;;
5245;SDS011;54412;51.206;6.888;2022-10-04T10:10:55;7.33;;;3.90;;
5245;SDS011;54412;51.206;6.888;2022-10-04T10:17:25;7.17;;;3.93;;
5245;SDS011;54412;51.206;6.888;2022-10-04T10:23:36;6.37;;;3.80;;
5245;SDS011;54412;51.206;6.888;2022-10-04T10:26:25;5.27;;;3.80;;
5245;SDS011;54412;51.206;6.888;2022-10-04T10:29:30;10.17;;;4.03;;
5245;SDS011;54412;51.206;6.888;2022-10-04T10:44:27;5.23;;;3.90;;
5245;SDS011;54412;51.206;6.888;2022-10-04T10:47:38;6.30;;;3.60;;
5245;SDS011;54412;51.206;6.888;2022-10-04T11:11:14;5.87;;;3.93;;
5245;SDS011;54412;51.206;6.888;2022-10-04T11:17:16;3.33;;;2.53;;
5245;SDS011;54412;51.206;6.888;2022-10-04T11:23:09;6.60;;;2.83;;
5245;SDS011;54412;51.206;6.888;2022-10-04T11:29:12;8.20;;;3.00;;
5245;SDS011;54412;51.206;6.888;2022-10-04T11:40:49;5.10;;;3.53;;
5245;SDS011;54412;51.206;6.888;2022-10-04T11:55:33;6.90;;;3.10;;
5245;SDS011;54412;51.206;6.888;2022-10-04T12:21:57;7.63;;;3.27;;
5245;SDS011;54412;51.206;6.888;2022-10-04T12:28:04;10.47;;;3.17;;
5245;SDS011;54412;51.206;6.888;2022-10-04T12:36:52;3.47;;;3.13;;
5245;SDS011;54412;51.206;6.888;2022-10-04T12:39:51;8.20;;;3.27;;
5245;SDS011;54412;51.206;6.888;2022-10-04T12:48:37;4.30;;;3.07;;
5245;SDS011;54412;51.206;6.888;2022-10-04T12:51:35;4.67;;;2.97;;
5245;SDS011;54412;51.206;6.888;2022-10-04T12:54:33;5.73;;;3.03;;
5245;SDS011;54412;51.206;6.888;2022-10-04T12:57:13;3.67;;;2.80;;
5245;SDS011;54412;51.206;6.888;2022-10-04T13:09:02;2.80;;;1.93;;
5245;SDS011;54412;51.206;6.888;2022-10-04T13:11:56;4.50;;;2.87;;
5245;SDS011;54412;51.206;6.888;2022-10-04T13:18:11;4.27;;;2.40;;
5245;SDS011;54412;51.206;6.888;2022-10-04T13:20:44;9.43;;;3.23;;
5245;SDS011;54412;51.206;6.888;2022-10-04T13:23:19;15.80;;;3.40;;
5245;SDS011;54412;51.206;6.888;2022-10-04T13:28:57;4.63;;;2.87;;
5245;SDS011;54412;51.206;6.888;2022-10-04T13:49:34;7.43;;;3.60;;
5245;SDS011;54412;51.206;6.888;2022-10-04T13:55:26;6.53;;;2.47;;
5245;SDS011;54412;51.206;6.888;2022-10-04T13:58:44;4.13;;;2.73;;
5245;SDS011;54412;51.206;6.888;2022-10-04T14:07:26;8.30;;;2.77;;
5245;SDS011;54412;51.206;6.888;2022-10-04T14:13:04;4.97;;;3.17;;
5245;SDS011;54412;51.206;6.888;2022-10-04T14:28:53;6.87;;;2.83;;
5245;SDS011;54412;51.206;6.888;2022-10-04T14:32:12;4.00;;;2.67;;
5245;SDS011;54412;51.206;6.888;2022-10-04T14:50:16;5.73;;;2.80;;
5245;SDS011;54412;51.206;6.888;2022-10-04T14:53:03;7.47;;;2.67;;
5245;SDS011;54412;51.206;6.888;2022-10-04T14:55:59;6.90;;;3.10;;
5245;SDS011;54412;51.206;6.888;2022-10-04T15:01:24;4.97;;;3.30;;
5245;SDS011;54412;51.206;6.888;2022-10-04T15:06:47;5.00;;;2.67;;
5245;SDS011;54412;51.206;6.888;2022-10-04T15:09:36;4.63;;;2.93;;
5245;SDS011;54412;51.206;6.888;2022-10-04T15:12:21;7.43;;;2.93;;
5245;SDS011;54412;51.206;6.888;2022-10-04T15:15:31;5.70;;;3.00;;
5245;SDS011;54412;51.206;6.888;2022-10-04T15:18:12;4.73;;;3.10;;
5245;SDS011;54412;51.206;6.888;2022-10-04T15:21:03;6.00;;;2.70;;
5245;SDS011;54412;51.206;6.888;2022-10-04T15:23:56;3.60;;;3.00;;
5245;SDS011;54412;51.206;6.888;2022-10-04T15:30:02;6.47;;;2.97;;
5245;SDS011;54412;51.206;6.888;2022-10-04T15:41:39;5.53;;;3.00;;
5245;SDS011;54412;51.206;6.888;2022-10-04T15:56:11;4.93;;;2.50;;
5245;SDS011;54412;51.206;6.888;2022-10-04T16:40:00;3.60;;;3.30;;
5245;SDS011;54412;51.206;6.888;2022-10-04T16:43:30;4.40;;;3.77;;
5245;SDS011;54412;51.206;6.888;2022-10-04T16:47:18;3.50;;;3.27;;
5245;SDS011;54412;51.206;6.888;2022-10-04T16:50:42;6.60;;;3.50;;
5245;SDS011;54412;51.206;6.888;2022-10-04T17:41:55;15.10;;;5.77;;
5245;SDS011;54412;51.206;6.888;2022-10-04T22:34:50;10.90;;;6.50;;
5245;SDS011;54412;51.206;6.888;2022-10-04T22:37:23;8.63;;;5.60;;
5245;SDS011;54412;51.206;6.888;2022-10-04T22:39:50;8.63;;;5.80;;
5245;SDS011;54412;51.206;6.888;2022-10-04T22:42:17;9.00;;;5.33;;
5245;SDS011;54412;51.206;6.888;2022-10-04T22:44:44;10.30;;;5.67;;
5245;SDS011;54412;51.206;6.888;2022-10-04T22:47:11;9.37;;;6.07;;
5245;SDS011;54412;51.206;6.888;2022-10-04T22:49:43;7.27;;;5.63;;
5245;SDS011;54412;51.206;6.888;2022-10-04T22:52:16;7.40;;;5.97;;
5245;SDS011;54412;51.206;6.888;2022-10-04T22:54:46;8.00;;;5.33;;
5245;SDS011;54412;51.206;6.888;2022-10-04T22:57:16;10.67;;;6.07;;
5245;SDS011;54412;51.206;6.888;2022-10-04T22:59:45;14.57;;;6.23;;
5245;SDS011;54412;51.206;6.888;2022-10-04T23:02:21;9.03;;;6.40;;
5245;SDS011;54412;51.206;6.888;2022-10-04T23:05:00;11.53;;;5.07;;
5245;SDS011;54412;51.206;6.888;2022-10-04T23:07:37;5.33;;;4.80;;
5245;SDS011;54412;51.206;6.888;2022-10-04T23:10:03;7.63;;;5.93;;
5245;SDS011;54412;51.206;6.888;2022-10-04T23:12:29;8.23;;;5.43;;
5245;SDS011;54412;51.206;6.888;2022-10-04T23:14:55;9.17;;;5.40;;
5245;SDS011;54412;51.206;6.888;2022-10-04T23:17:25;7.90;;;6.40;;
5245;SDS011;54412;51.206;6.888;2022-10-04T23:20:05;6.93;;;6.07;;
5245;SDS011;54412;51.206;6.888;2022-10-04T23:22:37;10.10;;;5.23;;
5245;SDS011;54412;51.206;6.888;2022-10-04T23:25:14;9.20;;;5.90;;
5245;SDS011;54412;51.206;6.888;2022-10-04T23:27:42;6.57;;;5.30;;
5245;SDS011;54412;51.206;6.888;2022-10-04T23:30:11;7.47;;;5.33;;
5245;SDS011;54412;51.206;6.888;2022-10-04T23:32:49;7.50;;;5.60;;
5245;SDS011;54412;51.206;6.888;2022-10-04T23:35:21;7.77;;;5.43;;
5245;SDS011;54412;51.206;6.888;2022-10-04T23:37:50;7.30;;;5.23;;
5245;SDS011;54412;51.206;6.888;2022-10-04T23:40:18;6.33;;;5.60;;
5245;SDS011;54412;51.206;6.888;2022-10-04T23:42:47;17.50;;;6.00;;
5245;SDS011;54412;51.206;6.888;2022-10-04T23:45:19;6.50;;;5.10;;
5245;SDS011;54412;51.206;6.888;2022-10-04T23:47:48;11.53;;;6.03;;
5245;SDS011;54412;51.206;6.888;2022-10-04T23:53:00;11.90;;;6.00;;
5245;SDS011;54412;51.206;6.888;2022-10-04T23:55:40;7.23;;;5.83;;
5245;SDS011;54412;51.206;6.888;2022-10-04T23:58:15;9.33;;;6.10;;
